sensor_id;sensor_type;location;lat;lon;timestamp;P1;durP1;ratioP1;P2;durP2;ratioP2
72286;SDS011;60221;45.696;16.076;2023-01-25T00:01:33;30.90;;;11.70;;
72286;SDS011;60221;45.696;16.076;2023-01-25T00:04:00;30.20;;;11.20;;
72286;SDS011;60221;45.696;16.076;2023-01-25T00:06:27;32.80;;;11.00;;
72286;SDS011;60221;45.696;16.076;2023-01-25T00:08:54;26.70;;;10.60;;
72286;SDS011;60221;45.696;16.076;2023-01-25T00:11:21;31.10;;;11.80;;
72286;SDS011;60221;45.696;16.076;2023-01-25T00:13:47;30.80;;;11.70;;
72286;SDS011;60221;45.696;16.076;2023-01-25T00:16:14;25.40;;;9.70;;
72286;SDS011;60221;45.696;16.076;2023-01-25T00:18:41;30.00;;;11.10;;
72286;SDS011;60221;45.696;16.076;2023-01-25T00:21:12;27.40;;;10.10;;
72286;SDS011;60221;45.696;16.076;2023-01-25T00:23:39;26.60;;;11.10;;
72286;SDS011;60221;45.696;16.076;2023-01-25T00:26:05;31.60;;;11.80;;
72286;SDS011;60221;45.696;16.076;2023-01-25T00:28:32;31.10;;;11.30;;
72286;SDS011;60221;45.696;16.076;2023-01-25T00:31:00;28.90;;;10.60;;
72286;SDS011;60221;45.696;16.076;2023-01-25T00:38:48;30.00;;;10.70;;
72286;SDS011;60221;45.696;16.076;2023-01-25T00:41:15;26.60;;;11.20;;
72286;SDS011;60221;45.696;16.076;2023-01-25T00:43:41;30.30;;;11.00;;
72286;SDS011;60221;45.696;16.076;2023-01-25T00:46:08;25.10;;;9.30;;
72286;SDS011;60221;45.696;16.076;2023-01-25T00:48:35;27.70;;;11.60;;
72286;SDS011;60221;45.696;16.076;2023-01-25T00:51:02;32.30;;;11.70;;
72286;SDS011;60221;45.696;16.076;2023-01-25T00:53:29;27.00;;;10.00;;
72286;SDS011;60221;45.696;16.076;2023-01-25T00:55:56;27.20;;;10.00;;
72286;SDS011;60221;45.696;16.076;2023-01-25T00:58:23;28.00;;;10.80;;
72286;SDS011;60221;45.696;16.076;2023-01-25T01:00:51;30.10;;;9.80;;
72286;SDS011;60221;45.696;16.076;2023-01-25T01:03:20;29.30;;;10.80;;
72286;SDS011;60221;45.696;16.076;2023-01-25T01:05:47;22.10;;;9.50;;
72286;SDS011;60221;45.696;16.076;2023-01-25T01:08:14;25.30;;;10.10;;
72286;SDS011;60221;45.696;16.076;2023-01-25T01:10:41;27.20;;;10.60;;
72286;SDS011;60221;45.696;16.076;2023-01-25T01:13:08;24.90;;;9.30;;
72286;SDS011;60221;45.696;16.076;2023-01-25T01:15:35;24.20;;;8.80;;
72286;SDS011;60221;45.696;16.076;2023-01-25T01:18:02;27.60;;;7.30;;
72286;SDS011;60221;45.696;16.076;2023-01-25T01:20:29;27.00;;;10.40;;
72286;SDS011;60221;45.696;16.076;2023-01-25T01:22:56;27.30;;;10.10;;
72286;SDS011;60221;45.696;16.076;2023-01-25T01:25:23;27.50;;;10.10;;
72286;SDS011;60221;45.696;16.076;2023-01-25T01:27:50;26.60;;;9.00;;
72286;SDS011;60221;45.696;16.076;2023-01-25T01:30:17;27.80;;;10.80;;
72286;SDS011;60221;45.696;16.076;2023-01-25T01:32:44;19.90;;;9.10;;
72286;SDS011;60221;45.696;16.076;2023-01-25T01:35:11;27.70;;;10.60;;
72286;SDS011;60221;45.696;16.076;2023-01-25T01:37:40;23.50;;;9.30;;
72286;SDS011;60221;45.696;16.076;2023-01-25T01:40:07;27.70;;;10.30;;
72286;SDS011;60221;45.696;16.076;2023-01-25T01:42:54;26.40;;;10.50;;
72286;SDS011;60221;45.696;16.076;2023-01-25T01:46:07;22.80;;;9.50;;
72286;SDS011;60221;45.696;16.076;2023-01-25T01:48:14;27.80;;;9.90;;
72286;SDS011;60221;45.696;16.076;2023-01-25T01:50:42;28.40;;;9.80;;
72286;SDS011;60221;45.696;16.076;2023-01-25T01:53:09;28.70;;;11.60;;
72286;SDS011;60221;45.696;16.076;2023-01-25T01:55:36;26.10;;;10.40;;
72286;SDS011;60221;45.696;16.076;2023-01-25T01:58:03;23.80;;;8.90;;
72286;SDS011;60221;45.696;16.076;2023-01-25T02:00:33;28.40;;;10.40;;
72286;SDS011;60221;45.696;16.076;2023-01-25T02:03:01;26.90;;;10.40;;
72286;SDS011;60221;45.696;16.076;2023-01-25T02:08:02;31.20;;;12.40;;
72286;SDS011;60221;45.696;16.076;2023-01-25T02:10:30;27.60;;;11.50;;
72286;SDS011;60221;45.696;16.076;2023-01-25T02:12:58;26.40;;;9.60;;
72286;SDS011;60221;45.696;16.076;2023-01-25T02:15:30;28.90;;;10.40;;
72286;SDS011;60221;45.696;16.076;2023-01-25T02:18:00;24.50;;;9.00;;
72286;SDS011;60221;45.696;16.076;2023-01-25T02:20:32;26.80;;;9.20;;
72286;SDS011;60221;45.696;16.076;2023-01-25T02:25:29;27.40;;;10.80;;
72286;SDS011;60221;45.696;16.076;2023-01-25T02:27:58;25.00;;;9.40;;
72286;SDS011;60221;45.696;16.076;2023-01-25T02:30:26;20.80;;;8.10;;
72286;SDS011;60221;45.696;16.076;2023-01-25T02:32:54;25.50;;;10.40;;
72286;SDS011;60221;45.696;16.076;2023-01-25T02:35:21;25.40;;;8.30;;
72286;SDS011;60221;45.696;16.076;2023-01-25T02:37:49;26.70;;;8.50;;
72286;SDS011;60221;45.696;16.076;2023-01-25T02:40:17;22.00;;;8.70;;
72286;SDS011;60221;45.696;16.076;2023-01-25T02:42:45;23.30;;;9.90;;
72286;SDS011;60221;45.696;16.076;2023-01-25T02:45:13;23.80;;;8.90;;
72286;SDS011;60221;45.696;16.076;2023-01-25T02:47:41;22.70;;;8.10;;
72286;SDS011;60221;45.696;16.076;2023-01-25T02:50:08;23.80;;;9.60;;
72286;SDS011;60221;45.696;16.076;2023-01-25T02:52:35;21.20;;;7.90;;
72286;SDS011;60221;45.696;16.076;2023-01-25T02:55:02;23.30;;;8.60;;
72286;SDS011;60221;45.696;16.076;2023-01-25T02:57:29;21.40;;;7.40;;
72286;SDS011;60221;45.696;16.076;2023-01-25T02:59:56;24.10;;;9.60;;
72286;SDS011;60221;45.696;16.076;2023-01-25T03:02:24;25.40;;;8.80;;
72286;SDS011;60221;45.696;16.076;2023-01-25T03:04:51;25.00;;;9.20;;
72286;SDS011;60221;45.696;16.076;2023-01-25T03:07:18;24.40;;;9.40;;
72286;SDS011;60221;45.696;16.076;2023-01-25T03:09:44;23.80;;;9.00;;
72286;SDS011;60221;45.696;16.076;2023-01-25T03:12:11;24.50;;;9.10;;
72286;SDS011;60221;45.696;16.076;2023-01-25T03:14:38;22.40;;;8.10;;
72286;SDS011;60221;45.696;16.076;2023-01-25T03:17:07;23.60;;;9.20;;
72286;SDS011;60221;45.696;16.076;2023-01-25T03:19:34;18.70;;;6.90;;
72286;SDS011;60221;45.696;16.076;2023-01-25T03:22:01;21.80;;;7.60;;
72286;SDS011;60221;45.696;16.076;2023-01-25T03:24:29;26.50;;;9.20;;
72286;SDS011;60221;45.696;16.076;2023-01-25T03:26:56;22.60;;;8.80;;
72286;SDS011;60221;45.696;16.076;2023-01-25T03:29:53;24.60;;;8.30;;
72286;SDS011;60221;45.696;16.076;2023-01-25T03:32:21;22.20;;;8.30;;
72286;SDS011;60221;45.696;16.076;2023-01-25T03:34:48;23.50;;;8.70;;
72286;SDS011;60221;45.696;16.076;2023-01-25T03:37:16;22.40;;;7.80;;
72286;SDS011;60221;45.696;16.076;2023-01-25T03:39:43;20.30;;;6.90;;
72286;SDS011;60221;45.696;16.076;2023-01-25T03:42:10;21.00;;;7.50;;
72286;SDS011;60221;45.696;16.076;2023-01-25T03:44:37;25.20;;;8.70;;
72286;SDS011;60221;45.696;16.076;2023-01-25T03:47:04;24.70;;;7.70;;
72286;SDS011;60221;45.696;16.076;2023-01-25T03:49:31;25.00;;;9.20;;
72286;SDS011;60221;45.696;16.076;2023-01-25T03:51:59;25.80;;;7.60;;
72286;SDS011;60221;45.696;16.076;2023-01-25T03:54:32;20.10;;;8.10;;
72286;SDS011;60221;45.696;16.076;2023-01-25T03:56:59;24.30;;;8.80;;
72286;SDS011;60221;45.696;16.076;2023-01-25T03:59:26;25.60;;;8.90;;
72286;SDS011;60221;45.696;16.076;2023-01-25T04:01:53;24.00;;;8.40;;
72286;SDS011;60221;45.696;16.076;2023-01-25T04:04:21;24.10;;;9.00;;
72286;SDS011;60221;45.696;16.076;2023-01-25T04:06:48;24.70;;;10.00;;
72286;SDS011;60221;45.696;16.076;2023-01-25T04:09:14;24.00;;;8.80;;
72286;SDS011;60221;45.696;16.076;2023-01-25T04:11:47;26.50;;;10.30;;
72286;SDS011;60221;45.696;16.076;2023-01-25T04:14:14;23.90;;;9.30;;
72286;SDS011;60221;45.696;16.076;2023-01-25T04:16:45;23.50;;;8.60;;
72286;SDS011;60221;45.696;16.076;2023-01-25T04:19:41;28.20;;;9.90;;
72286;SDS011;60221;45.696;16.076;2023-01-25T04:22:10;22.70;;;8.50;;
72286;SDS011;60221;45.696;16.076;2023-01-25T04:24:38;28.20;;;10.60;;
72286;SDS011;60221;45.696;16.076;2023-01-25T04:27:06;24.00;;;8.50;;
72286;SDS011;60221;45.696;16.076;2023-01-25T04:29:40;19.30;;;7.20;;
72286;SDS011;60221;45.696;16.076;2023-01-25T04:32:12;21.20;;;7.80;;
72286;SDS011;60221;45.696;16.076;2023-01-25T04:34:39;23.30;;;8.50;;
72286;SDS011;60221;45.696;16.076;2023-01-25T04:37:10;22.00;;;8.00;;
72286;SDS011;60221;45.696;16.076;2023-01-25T04:39:45;21.40;;;7.90;;
72286;SDS011;60221;45.696;16.076;2023-01-25T04:42:12;21.50;;;7.70;;
72286;SDS011;60221;45.696;16.076;2023-01-25T04:44:39;25.30;;;8.80;;
72286;SDS011;60221;45.696;16.076;2023-01-25T04:47:06;21.80;;;8.70;;
72286;SDS011;60221;45.696;16.076;2023-01-25T04:49:34;25.70;;;9.30;;
72286;SDS011;60221;45.696;16.076;2023-01-25T04:52:01;27.70;;;10.20;;
72286;SDS011;60221;45.696;16.076;2023-01-25T04:54:27;22.80;;;8.70;;
72286;SDS011;60221;45.696;16.076;2023-01-25T04:56:54;23.30;;;8.30;;
72286;SDS011;60221;45.696;16.076;2023-01-25T04:59:21;20.70;;;7.40;;
72286;SDS011;60221;45.696;16.076;2023-01-25T05:01:48;21.80;;;7.90;;
72286;SDS011;60221;45.696;16.076;2023-01-25T05:04:15;25.60;;;8.90;;
72286;SDS011;60221;45.696;16.076;2023-01-25T05:09:35;23.30;;;9.00;;
72286;SDS011;60221;45.696;16.076;2023-01-25T05:12:02;22.70;;;8.80;;
72286;SDS011;60221;45.696;16.076;2023-01-25T05:14:37;21.80;;;7.20;;
72286;SDS011;60221;45.696;16.076;2023-01-25T05:17:05;23.70;;;8.10;;
72286;SDS011;60221;45.696;16.076;2023-01-25T05:19:32;22.00;;;8.80;;
72286;SDS011;60221;45.696;16.076;2023-01-25T05:22:02;25.70;;;9.80;;
72286;SDS011;60221;45.696;16.076;2023-01-25T05:24:40;26.00;;;9.30;;
72286;SDS011;60221;45.696;16.076;2023-01-25T05:27:08;24.20;;;9.20;;
72286;SDS011;60221;45.696;16.076;2023-01-25T05:29:58;22.40;;;7.80;;
72286;SDS011;60221;45.696;16.076;2023-01-25T05:32:46;29.50;;;11.00;;
72286;SDS011;60221;45.696;16.076;2023-01-25T05:35:14;19.90;;;7.30;;
72286;SDS011;60221;45.696;16.076;2023-01-25T05:37:41;27.80;;;10.20;;
72286;SDS011;60221;45.696;16.076;2023-01-25T05:40:13;19.60;;;8.00;;
72286;SDS011;60221;45.696;16.076;2023-01-25T05:42:42;23.40;;;7.50;;
72286;SDS011;60221;45.696;16.076;2023-01-25T05:45:15;24.30;;;9.60;;
72286;SDS011;60221;45.696;16.076;2023-01-25T05:47:43;23.60;;;8.70;;
72286;SDS011;60221;45.696;16.076;2023-01-25T05:50:10;22.90;;;8.90;;
72286;SDS011;60221;45.696;16.076;2023-01-25T05:52:45;23.30;;;8.80;;
72286;SDS011;60221;45.696;16.076;2023-01-25T05:55:12;23.90;;;8.90;;
72286;SDS011;60221;45.696;16.076;2023-01-25T05:57:41;27.90;;;9.40;;
72286;SDS011;60221;45.696;16.076;2023-01-25T06:00:08;22.70;;;8.90;;
72286;SDS011;60221;45.696;16.076;2023-01-25T06:02:38;24.30;;;8.90;;
72286;SDS011;60221;45.696;16.076;2023-01-25T06:05:07;23.20;;;9.20;;
72286;SDS011;60221;45.696;16.076;2023-01-25T06:07:34;22.10;;;8.80;;
72286;SDS011;60221;45.696;16.076;2023-01-25T06:10:04;27.10;;;10.00;;
72286;SDS011;60221;45.696;16.076;2023-01-25T06:12:31;25.60;;;8.10;;
72286;SDS011;60221;45.696;16.076;2023-01-25T06:14:58;26.30;;;9.80;;
72286;SDS011;60221;45.696;16.076;2023-01-25T06:17:25;24.10;;;8.90;;
72286;SDS011;60221;45.696;16.076;2023-01-25T06:19:51;25.40;;;10.50;;
72286;SDS011;60221;45.696;16.076;2023-01-25T06:22:28;22.40;;;8.00;;
72286;SDS011;60221;45.696;16.076;2023-01-25T06:24:55;23.20;;;8.50;;
72286;SDS011;60221;45.696;16.076;2023-01-25T06:27:21;25.70;;;9.90;;
72286;SDS011;60221;45.696;16.076;2023-01-25T06:29:48;22.40;;;8.30;;
72286;SDS011;60221;45.696;16.076;2023-01-25T06:32:15;23.60;;;7.90;;
72286;SDS011;60221;45.696;16.076;2023-01-25T06:34:43;23.30;;;9.20;;
72286;SDS011;60221;45.696;16.076;2023-01-25T06:37:15;21.40;;;8.90;;
72286;SDS011;60221;45.696;16.076;2023-01-25T06:39:41;24.30;;;9.40;;
72286;SDS011;60221;45.696;16.076;2023-01-25T06:42:08;23.70;;;9.80;;
72286;SDS011;60221;45.696;16.076;2023-01-25T06:44:35;23.10;;;8.60;;
72286;SDS011;60221;45.696;16.076;2023-01-25T06:47:02;26.90;;;9.40;;
72286;SDS011;60221;45.696;16.076;2023-01-25T06:49:28;28.20;;;12.60;;
72286;SDS011;60221;45.696;16.076;2023-01-25T06:51:55;29.20;;;10.60;;
72286;SDS011;60221;45.696;16.076;2023-01-25T06:54:21;26.80;;;11.10;;
72286;SDS011;60221;45.696;16.076;2023-01-25T06:56:48;24.20;;;10.00;;
72286;SDS011;60221;45.696;16.076;2023-01-25T06:59:15;23.90;;;9.90;;
72286;SDS011;60221;45.696;16.076;2023-01-25T07:01:41;25.20;;;10.40;;
72286;SDS011;60221;45.696;16.076;2023-01-25T07:04:09;22.50;;;9.40;;
72286;SDS011;60221;45.696;16.076;2023-01-25T07:06:37;25.20;;;9.90;;
72286;SDS011;60221;45.696;16.076;2023-01-25T07:09:04;31.70;;;13.80;;
72286;SDS011;60221;45.696;16.076;2023-01-25T07:11:31;26.10;;;10.60;;
72286;SDS011;60221;45.696;16.076;2023-01-25T07:13:58;30.60;;;11.20;;
72286;SDS011;60221;45.696;16.076;2023-01-25T07:16:26;36.10;;;15.50;;
72286;SDS011;60221;45.696;16.076;2023-01-25T07:18:53;33.40;;;11.40;;
72286;SDS011;60221;45.696;16.076;2023-01-25T07:21:20;27.10;;;11.20;;
72286;SDS011;60221;45.696;16.076;2023-01-25T07:23:48;23.20;;;10.20;;
72286;SDS011;60221;45.696;16.076;2023-01-25T07:26:16;27.00;;;10.30;;
72286;SDS011;60221;45.696;16.076;2023-01-25T07:28:44;23.30;;;10.00;;
72286;SDS011;60221;45.696;16.076;2023-01-25T07:31:11;26.90;;;9.70;;
72286;SDS011;60221;45.696;16.076;2023-01-25T07:33:38;23.80;;;9.30;;
72286;SDS011;60221;45.696;16.076;2023-01-25T07:36:05;29.50;;;10.50;;
72286;SDS011;60221;45.696;16.076;2023-01-25T07:38:33;23.60;;;9.10;;
72286;SDS011;60221;45.696;16.076;2023-01-25T07:41:00;37.60;;;15.90;;
72286;SDS011;60221;45.696;16.076;2023-01-25T07:43:26;27.60;;;11.90;;
72286;SDS011;60221;45.696;16.076;2023-01-25T07:45:59;59.70;;;19.90;;
72286;SDS011;60221;45.696;16.076;2023-01-25T07:48:26;72.90;;;28.80;;
72286;SDS011;60221;45.696;16.076;2023-01-25T07:50:56;82.30;;;30.60;;
72286;SDS011;60221;45.696;16.076;2023-01-25T07:53:41;39.10;;;15.70;;
72286;SDS011;60221;45.696;16.076;2023-01-25T07:56:10;69.30;;;28.50;;
72286;SDS011;60221;45.696;16.076;2023-01-25T07:58:38;42.70;;;18.90;;
72286;SDS011;60221;45.696;16.076;2023-01-25T08:01:05;33.50;;;15.20;;
72286;SDS011;60221;45.696;16.076;2023-01-25T08:03:34;32.60;;;13.10;;
72286;SDS011;60221;45.696;16.076;2023-01-25T08:06:00;29.80;;;12.30;;
72286;SDS011;60221;45.696;16.076;2023-01-25T08:08:31;27.60;;;11.90;;
72286;SDS011;60221;45.696;16.076;2023-01-25T08:11:00;25.80;;;9.50;;
72286;SDS011;60221;45.696;16.076;2023-01-25T08:13:32;27.10;;;10.30;;
72286;SDS011;60221;45.696;16.076;2023-01-25T08:15:59;24.90;;;10.20;;
72286;SDS011;60221;45.696;16.076;2023-01-25T08:18:25;26.50;;;10.20;;
72286;SDS011;60221;45.696;16.076;2023-01-25T08:20:56;28.90;;;11.20;;
72286;SDS011;60221;45.696;16.076;2023-01-25T08:23:23;25.60;;;9.50;;
72286;SDS011;60221;45.696;16.076;2023-01-25T08:25:50;29.40;;;11.00;;
72286;SDS011;60221;45.696;16.076;2023-01-25T08:28:17;25.70;;;9.10;;
72286;SDS011;60221;45.696;16.076;2023-01-25T08:30:44;31.50;;;11.50;;
72286;SDS011;60221;45.696;16.076;2023-01-25T08:33:22;32.70;;;12.90;;
72286;SDS011;60221;45.696;16.076;2023-01-25T08:35:53;32.00;;;13.00;;
72286;SDS011;60221;45.696;16.076;2023-01-25T08:38:21;27.90;;;10.80;;
72286;SDS011;60221;45.696;16.076;2023-01-25T08:40:47;28.10;;;11.90;;
72286;SDS011;60221;45.696;16.076;2023-01-25T08:43:14;27.40;;;9.70;;
72286;SDS011;60221;45.696;16.076;2023-01-25T08:45:40;25.60;;;10.70;;
72286;SDS011;60221;45.696;16.076;2023-01-25T08:48:07;28.40;;;10.10;;
72286;SDS011;60221;45.696;16.076;2023-01-25T08:50:34;28.80;;;12.40;;
72286;SDS011;60221;45.696;16.076;2023-01-25T08:53:01;32.90;;;11.20;;
72286;SDS011;60221;45.696;16.076;2023-01-25T08:55:27;30.90;;;10.70;;
72286;SDS011;60221;45.696;16.076;2023-01-25T08:57:54;30.60;;;11.90;;
72286;SDS011;60221;45.696;16.076;2023-01-25T09:00:22;35.80;;;17.00;;
72286;SDS011;60221;45.696;16.076;2023-01-25T09:02:49;30.20;;;12.80;;
72286;SDS011;60221;45.696;16.076;2023-01-25T09:05:16;31.90;;;14.00;;
72286;SDS011;60221;45.696;16.076;2023-01-25T09:07:42;31.60;;;14.60;;
72286;SDS011;60221;45.696;16.076;2023-01-25T09:10:09;31.90;;;14.20;;
72286;SDS011;60221;45.696;16.076;2023-01-25T09:12:37;24.60;;;11.40;;
72286;SDS011;60221;45.696;16.076;2023-01-25T09:15:04;28.80;;;10.00;;
72286;SDS011;60221;45.696;16.076;2023-01-25T09:17:30;25.30;;;10.30;;
72286;SDS011;60221;45.696;16.076;2023-01-25T09:19:57;26.10;;;10.10;;
72286;SDS011;60221;45.696;16.076;2023-01-25T09:22:24;27.20;;;10.20;;
72286;SDS011;60221;45.696;16.076;2023-01-25T09:24:51;26.10;;;9.00;;
72286;SDS011;60221;45.696;16.076;2023-01-25T09:27:19;24.90;;;9.50;;
72286;SDS011;60221;45.696;16.076;2023-01-25T09:29:46;28.30;;;10.70;;
72286;SDS011;60221;45.696;16.076;2023-01-25T09:32:28;27.00;;;10.40;;
72286;SDS011;60221;45.696;16.076;2023-01-25T09:34:57;25.90;;;11.20;;
72286;SDS011;60221;45.696;16.076;2023-01-25T09:37:24;25.40;;;10.90;;
72286;SDS011;60221;45.696;16.076;2023-01-25T09:39:50;28.80;;;12.70;;
72286;SDS011;60221;45.696;16.076;2023-01-25T09:54:56;32.90;;;14.10;;
72286;SDS011;60221;45.696;16.076;2023-01-25T09:59:52;32.30;;;14.50;;
72286;SDS011;60221;45.696;16.076;2023-01-25T10:04:56;26.50;;;11.00;;
72286;SDS011;60221;45.696;16.076;2023-01-25T10:10:17;30.90;;;11.80;;
72286;SDS011;60221;45.696;16.076;2023-01-25T10:12:46;29.60;;;11.60;;
72286;SDS011;60221;45.696;16.076;2023-01-25T10:17:42;28.10;;;11.80;;
72286;SDS011;60221;45.696;16.076;2023-01-25T10:20:22;28.90;;;11.20;;
72286;SDS011;60221;45.696;16.076;2023-01-25T10:25:37;35.50;;;12.70;;
72286;SDS011;60221;45.696;16.076;2023-01-25T10:28:29;30.30;;;12.90;;
72286;SDS011;60221;45.696;16.076;2023-01-25T10:30:58;30.90;;;12.30;;
72286;SDS011;60221;45.696;16.076;2023-01-25T10:33:26;30.10;;;11.30;;
72286;SDS011;60221;45.696;16.076;2023-01-25T10:35:55;32.20;;;13.30;;
72286;SDS011;60221;45.696;16.076;2023-01-25T10:40:54;28.80;;;11.30;;
72286;SDS011;60221;45.696;16.076;2023-01-25T10:43:22;32.50;;;13.60;;
72286;SDS011;60221;45.696;16.076;2023-01-25T10:45:49;58.50;;;23.80;;
72286;SDS011;60221;45.696;16.076;2023-01-25T10:48:28;54.10;;;23.30;;
72286;SDS011;60221;45.696;16.076;2023-01-25T10:50:56;35.90;;;14.90;;
72286;SDS011;60221;45.696;16.076;2023-01-25T10:58:37;34.00;;;12.00;;
72286;SDS011;60221;45.696;16.076;2023-01-25T11:01:04;35.70;;;12.80;;
72286;SDS011;60221;45.696;16.076;2023-01-25T11:03:40;30.80;;;11.90;;
72286;SDS011;60221;45.696;16.076;2023-01-25T11:06:07;34.80;;;13.20;;
72286;SDS011;60221;45.696;16.076;2023-01-25T11:08:35;36.90;;;12.60;;
72286;SDS011;60221;45.696;16.076;2023-01-25T11:13:58;31.90;;;11.90;;
72286;SDS011;60221;45.696;16.076;2023-01-25T11:16:33;34.50;;;11.90;;
72286;SDS011;60221;45.696;16.076;2023-01-25T11:19:01;34.80;;;12.70;;
72286;SDS011;60221;45.696;16.076;2023-01-25T11:21:29;35.10;;;13.40;;
72286;SDS011;60221;45.696;16.076;2023-01-25T11:24:01;38.20;;;13.70;;
72286;SDS011;60221;45.696;16.076;2023-01-25T11:26:30;35.30;;;13.40;;
72286;SDS011;60221;45.696;16.076;2023-01-25T11:29:11;38.60;;;13.90;;
72286;SDS011;60221;45.696;16.076;2023-01-25T11:31:39;36.70;;;15.50;;
72286;SDS011;60221;45.696;16.076;2023-01-25T11:34:21;37.60;;;14.50;;
72286;SDS011;60221;45.696;16.076;2023-01-25T11:47:11;29.20;;;11.50;;
72286;SDS011;60221;45.696;16.076;2023-01-25T11:49:44;34.10;;;12.20;;
72286;SDS011;60221;45.696;16.076;2023-01-25T11:57:33;34.40;;;13.70;;
72286;SDS011;60221;45.696;16.076;2023-01-25T12:08:11;35.80;;;13.90;;
72286;SDS011;60221;45.696;16.076;2023-01-25T12:21:08;27.10;;;9.30;;
72286;SDS011;60221;45.696;16.076;2023-01-25T12:26:24;34.60;;;12.40;;
72286;SDS011;60221;45.696;16.076;2023-01-25T12:32:25;35.40;;;13.30;;
72286;SDS011;60221;45.696;16.076;2023-01-25T12:34:20;32.60;;;12.00;;
72286;SDS011;60221;45.696;16.076;2023-01-25T12:36:47;32.60;;;13.20;;
72286;SDS011;60221;45.696;16.076;2023-01-25T12:39:22;33.40;;;12.10;;
72286;SDS011;60221;45.696;16.076;2023-01-25T12:41:52;34.90;;;12.20;;
72286;SDS011;60221;45.696;16.076;2023-01-25T12:44:24;34.90;;;13.50;;
72286;SDS011;60221;45.696;16.076;2023-01-25T12:46:56;41.10;;;15.50;;
72286;SDS011;60221;45.696;16.076;2023-01-25T12:49:35;46.10;;;17.00;;
72286;SDS011;60221;45.696;16.076;2023-01-25T12:52:05;39.30;;;15.40;;
72286;SDS011;60221;45.696;16.076;2023-01-25T12:54:36;37.20;;;12.90;;
72286;SDS011;60221;45.696;16.076;2023-01-25T12:57:23;31.40;;;11.80;;
72286;SDS011;60221;45.696;16.076;2023-01-25T12:59:57;31.00;;;12.20;;
72286;SDS011;60221;45.696;16.076;2023-01-25T13:03:14;31.90;;;11.50;;
72286;SDS011;60221;45.696;16.076;2023-01-25T13:08:05;25.60;;;9.90;;
72286;SDS011;60221;45.696;16.076;2023-01-25T13:10:51;29.30;;;10.80;;
72286;SDS011;60221;45.696;16.076;2023-01-25T13:13:20;34.70;;;12.80;;
72286;SDS011;60221;45.696;16.076;2023-01-25T13:15:48;30.80;;;11.20;;
72286;SDS011;60221;45.696;16.076;2023-01-25T13:20:54;137.00;;;49.40;;
72286;SDS011;60221;45.696;16.076;2023-01-25T13:23:40;67.50;;;24.40;;
72286;SDS011;60221;45.696;16.076;2023-01-25T13:28:52;38.30;;;15.30;;
72286;SDS011;60221;45.696;16.076;2023-01-25T13:37:01;39.30;;;14.00;;
72286;SDS011;60221;45.696;16.076;2023-01-25T13:44:27;40.30;;;15.50;;
72286;SDS011;60221;45.696;16.076;2023-01-25T13:46:56;38.40;;;13.80;;
72286;SDS011;60221;45.696;16.076;2023-01-25T13:49:24;37.10;;;14.30;;
72286;SDS011;60221;45.696;16.076;2023-01-25T13:51:52;34.40;;;12.80;;
72286;SDS011;60221;45.696;16.076;2023-01-25T13:54:19;37.70;;;14.30;;
72286;SDS011;60221;45.696;16.076;2023-01-25T13:56:46;28.80;;;11.30;;
72286;SDS011;60221;45.696;16.076;2023-01-25T13:59:23;27.20;;;10.60;;
72286;SDS011;60221;45.696;16.076;2023-01-25T14:01:50;37.60;;;13.30;;
72286;SDS011;60221;45.696;16.076;2023-01-25T14:04:18;41.90;;;15.50;;
72286;SDS011;60221;45.696;16.076;2023-01-25T14:06:44;30.20;;;10.80;;
72286;SDS011;60221;45.696;16.076;2023-01-25T14:09:12;42.20;;;14.10;;
72286;SDS011;60221;45.696;16.076;2023-01-25T14:11:43;40.90;;;13.00;;
72286;SDS011;60221;45.696;16.076;2023-01-25T14:14:18;38.00;;;13.60;;
72286;SDS011;60221;45.696;16.076;2023-01-25T14:16:57;35.00;;;12.70;;
72286;SDS011;60221;45.696;16.076;2023-01-25T14:19:26;37.60;;;13.70;;
72286;SDS011;60221;45.696;16.076;2023-01-25T14:27:28;38.50;;;14.20;;
72286;SDS011;60221;45.696;16.076;2023-01-25T14:29:55;39.70;;;14.20;;
72286;SDS011;60221;45.696;16.076;2023-01-25T14:32:22;52.00;;;18.20;;
72286;SDS011;60221;45.696;16.076;2023-01-25T14:34:50;53.40;;;18.20;;
72286;SDS011;60221;45.696;16.076;2023-01-25T14:37:17;105.00;;;39.30;;
72286;SDS011;60221;45.696;16.076;2023-01-25T14:39:47;71.30;;;28.30;;
72286;SDS011;60221;45.696;16.076;2023-01-25T14:42:14;62.50;;;23.20;;
72286;SDS011;60221;45.696;16.076;2023-01-25T14:44:42;73.70;;;32.20;;
72286;SDS011;60221;45.696;16.076;2023-01-25T14:49:45;48.30;;;18.60;;
72286;SDS011;60221;45.696;16.076;2023-01-25T14:52:13;36.90;;;15.30;;
72286;SDS011;60221;45.696;16.076;2023-01-25T14:54:49;40.40;;;14.70;;
72286;SDS011;60221;45.696;16.076;2023-01-25T14:59:50;35.80;;;14.10;;
72286;SDS011;60221;45.696;16.076;2023-01-25T15:05:02;39.00;;;13.90;;
72286;SDS011;60221;45.696;16.076;2023-01-25T15:13:26;28.80;;;10.30;;
72286;SDS011;60221;45.696;16.076;2023-01-25T15:21:07;37.30;;;14.00;;
72286;SDS011;60221;45.696;16.076;2023-01-25T15:23:34;32.30;;;11.50;;
72286;SDS011;60221;45.696;16.076;2023-01-25T15:26:00;37.00;;;13.60;;
72286;SDS011;60221;45.696;16.076;2023-01-25T15:28:29;35.60;;;12.70;;
72286;SDS011;60221;45.696;16.076;2023-01-25T15:30:59;33.90;;;11.20;;
72286;SDS011;60221;45.696;16.076;2023-01-25T15:33:27;34.90;;;13.90;;
72286;SDS011;60221;45.696;16.076;2023-01-25T15:35:55;37.10;;;13.30;;
72286;SDS011;60221;45.696;16.076;2023-01-25T15:38:21;37.00;;;12.90;;
72286;SDS011;60221;45.696;16.076;2023-01-25T15:40:50;37.70;;;12.70;;
72286;SDS011;60221;45.696;16.076;2023-01-25T15:43:17;39.60;;;14.00;;
72286;SDS011;60221;45.696;16.076;2023-01-25T15:45:48;38.20;;;13.20;;
72286;SDS011;60221;45.696;16.076;2023-01-25T15:48:18;31.60;;;11.40;;
72286;SDS011;60221;45.696;16.076;2023-01-25T15:50:49;39.20;;;14.30;;
72286;SDS011;60221;45.696;16.076;2023-01-25T15:53:16;39.30;;;12.80;;
72286;SDS011;60221;45.696;16.076;2023-01-25T15:55:45;39.20;;;14.30;;
72286;SDS011;60221;45.696;16.076;2023-01-25T15:58:13;32.50;;;13.70;;
72286;SDS011;60221;45.696;16.076;2023-01-25T16:00:44;40.30;;;15.60;;
72286;SDS011;60221;45.696;16.076;2023-01-25T16:03:11;37.30;;;14.50;;
72286;SDS011;60221;45.696;16.076;2023-01-25T16:05:40;31.90;;;11.60;;
72286;SDS011;60221;45.696;16.076;2023-01-25T16:08:11;36.70;;;13.80;;
72286;SDS011;60221;45.696;16.076;2023-01-25T16:10:39;34.60;;;12.50;;
72286;SDS011;60221;45.696;16.076;2023-01-25T16:13:07;31.60;;;11.00;;
72286;SDS011;60221;45.696;16.076;2023-01-25T16:15:35;36.70;;;15.50;;
72286;SDS011;60221;45.696;16.076;2023-01-25T16:18:02;32.30;;;12.20;;
72286;SDS011;60221;45.696;16.076;2023-01-25T16:20:29;32.80;;;12.30;;
72286;SDS011;60221;45.696;16.076;2023-01-25T16:22:56;37.00;;;13.70;;
72286;SDS011;60221;45.696;16.076;2023-01-25T16:25:23;30.10;;;11.20;;
72286;SDS011;60221;45.696;16.076;2023-01-25T16:27:51;36.10;;;13.50;;
72286;SDS011;60221;45.696;16.076;2023-01-25T16:30:19;35.90;;;14.30;;
72286;SDS011;60221;45.696;16.076;2023-01-25T16:32:49;32.30;;;11.90;;
72286;SDS011;60221;45.696;16.076;2023-01-25T16:35:17;36.80;;;12.90;;
72286;SDS011;60221;45.696;16.076;2023-01-25T16:37:44;34.50;;;13.50;;